Wetterdaten: Woche 31.10.16 - 06.11.16 (KW44)
Datum Zeit Temp. I. Temp. A. Feuchte I. Feuchte A. Luftdruck Regen Wind Richtung Sonnenschein UV Solar Taupunkt Windchill Windben
31.10.2016 00:00 23,7 C 2,4 C 50 % 95 % 1030,9 hPa 0,0 l/m 0,2 km/h (0 Bft) S-SO 0,00 h 0,0 UV-I 0 W/m 1,7 C 2,4 C 0,3 km/h (0 Bft)
31.10.2016 01:00 23,6 C 2,5 C 51 % 96 % 1030,7 hPa 0,0 l/m 0,0 km/h (0 Bft) N 0,00 h 0,0 UV-I 0 W/m 2,0 C 2,5 C 0,0 km/h (0 Bft)
31.10.2016 02:00 23,6 C 2,6 C 51 % 96 % 1030,6 hPa 0,0 l/m 0,0 km/h (0 Bft) N 0,00 h 0,0 UV-I 0 W/m 2,0 C 2,6 C 0,0 km/h (0 Bft)
31.10.2016 03:00 23,6 C 2,4 C 51 % 96 % 1030,4 hPa 0,0 l/m 0,0 km/h (0 Bft) W-SW 0,00 h 0,0 UV-I 0 W/m 1,8 C 2,4 C 0,1 km/h (0 Bft)
31.10.2016 04:00 24,0 C 2,6 C 52 % 97 % 1030,3 hPa 0,0 l/m 0,0 km/h (0 Bft) N 0,00 h 0,0 UV-I 0 W/m 2,1 C 2,6 C 0,0 km/h (0 Bft)
31.10.2016 05:00 24,1 C 2,9 C 52 % 97 % 1030,1 hPa 0,0 l/m 0,0 km/h (0 Bft) N 0,00 h 0,0 UV-I 0 W/m 2,5 C 2,9 C 0,0 km/h (0 Bft)
31.10.2016 06:00 24,1 C 3,2 C 52 % 97 % 1030,0 hPa 0,0 l/m 0,0 km/h (0 Bft) N 0,00 h 0,0 UV-I 0 W/m 2,8 C 3,2 C 0,0 km/h (0 Bft)
31.10.2016 07:00 23,8 C 3,2 C 53 % 97 % 1030,2 hPa 0,0 l/m 0,1 km/h (0 Bft) W 0,00 h 0,0 UV-I 18 W/m 2,8 C 3,2 C 0,3 km/h (0 Bft)
31.10.2016 08:00 23,9 C 3,9 C 53 % 97 % 1030,6 hPa 0,0 l/m 0,0 km/h (0 Bft) N 0,00 h 0,0 UV-I 49 W/m 3,4 C 3,9 C 0,1 km/h (0 Bft)
31.10.2016 09:00 24,0 C 4,8 C 52 % 97 % 1030,7 hPa 0,0 l/m 0,0 km/h (0 Bft) NW 0,00 h 0,6 UV-I 80 W/m 4,4 C 4,8 C 0,3 km/h (0 Bft)
31.10.2016 10:00 23,9 C 6,1 C 52 % 94 % 1030,3 hPa 0,0 l/m 0,1 km/h (0 Bft) W-SW 0,35 h 0,9 UV-I 156 W/m 5,3 C 6,1 C 0,6 km/h (0 Bft)
31.10.2016 11:00 24,0 C 6,9 C 53 % 90 % 1029,9 hPa 0,0 l/m 0,2 km/h (0 Bft) W-NW 0,70 h 1,1 UV-I 187 W/m 5,4 C 6,9 C 0,7 km/h (0 Bft)
31.10.2016 12:00 24,1 C 8,7 C 51 % 84 % 1029,5 hPa 0,0 l/m 0,5 km/h (0 Bft) S 1,00 h 1,7 UV-I 400 W/m 6,2 C 8,7 C 1,4 km/h (1 Bft)
31.10.2016 13:00 24,2 C 9,7 C 50 % 80 % 1029,1 hPa 0,0 l/m 0,1 km/h (0 Bft) S 0,80 h 1,3 UV-I 284 W/m 6,3 C 9,7 C 0,2 km/h (0 Bft)
31.10.2016 14:00 24,3 C 10,5 C 49 % 77 % 1028,7 hPa 0,0 l/m 0,8 km/h (0 Bft) S 0,83 h 0,8 UV-I 185 W/m 6,5 C 10,5 C 2,1 km/h (1 Bft)
31.10.2016 15:00 23,9 C 10,6 C 44 % 74 % 1028,2 hPa 0,0 l/m 0,2 km/h (0 Bft) S 0,25 h 0,5 UV-I 116 W/m 6,1 C 10,6 C 0,6 km/h (0 Bft)
31.10.2016 16:00 23,7 C 9,4 C 46 % 79 % 1027,8 hPa 0,0 l/m 0,0 km/h (0 Bft) N 0,00 h 0,0 UV-I 20 W/m 5,9 C 9,4 C 0,0 km/h (0 Bft)
31.10.2016 17:00 23,9 C 8,1 C 48 % 83 % 1028,0 hPa 0,0 l/m 0,0 km/h (0 Bft) N 0,00 h 0,0 UV-I 0 W/m 5,4 C 8,1 C 0,0 km/h (0 Bft)
31.10.2016 18:00 24,0 C 6,4 C 47 % 86 % 1028,2 hPa 0,0 l/m 0,0 km/h (0 Bft) N 0,00 h 0,0 UV-I 0 W/m 4,3 C 6,4 C 0,0 km/h (0 Bft)
31.10.2016 19:00 24,2 C 4,8 C 48 % 89 % 1028,1 hPa 0,0 l/m 0,0 km/h (0 Bft) N 0,00 h 0,0 UV-I 0 W/m 3,1 C 4,8 C 0,0 km/h (0 Bft)
31.10.2016 20:00 24,2 C 3,8 C 49 % 91 % 1028,1 hPa 0,0 l/m 0,0 km/h (0 Bft) N 0,00 h 0,0 UV-I 0 W/m 2,5 C 3,8 C 0,0 km/h (0 Bft)
31.10.2016 21:00 24,2 C 2,8 C 50 % 92 % 1028,3 hPa 0,0 l/m 0,0 km/h (0 Bft) N 0,00 h 0,0 UV-I 0 W/m 1,6 C 2,8 C 0,0 km/h (0 Bft)
31.10.2016 22:00 24,0 C 2,2 C 49 % 93 % 1028,2 hPa 0,0 l/m 0,0 km/h (0 Bft) N 0,00 h 0,0 UV-I 0 W/m 1,2 C 2,2 C 0,0 km/h (0 Bft)
31.10.2016 23:00 23,8 C 1,7 C 49 % 93 % 1027,9 hPa 0,0 l/m 0,0 km/h (0 Bft) N 0,00 h 0,0 UV-I 0 W/m 0,7 C 1,7 C 0,0 km/h (0 Bft)
01.11.2016 00:00 23,7 C 1,2 C 50 % 93 % 1027,5 hPa 0,0 l/m 0,0 km/h (0 Bft) N 0,00 h 0,0 UV-I 0 W/m 0,2 C 1,2 C 0,0 km/h (0 Bft)
01.11.2016 01:00 23,7 C 0,8 C 50 % 93 % 1027,0 hPa 0,0 l/m 0,0 km/h (0 Bft) N 0,00 h 0,0 UV-I 0 W/m -0,2 C 0,8 C 0,0 km/h (0 Bft)
01.11.2016 02:00 23,9 C 0,7 C 51 % 94 % 1026,4 hPa 0,0 l/m 0,0 km/h (0 Bft) N 0,00 h 0,0 UV-I 0 W/m -0,2 C 0,7 C 0,0 km/h (0 Bft)
01.11.2016 03:00 24,1 C 1,0 C 51 % 95 % 1025,9 hPa 0,0 l/m 0,0 km/h (0 Bft) N 0,00 h 0,0 UV-I 0 W/m 0,2 C 1,0 C 0,0 km/h (0 Bft)
01.11.2016 04:00 24,2 C 1,2 C 52 % 96 % 1025,4 hPa 0,0 l/m 0,0 km/h (0 Bft) N 0,00 h 0,0 UV-I 0 W/m 0,6 C 1,2 C 0,0 km/h (0 Bft)
01.11.2016 05:00 23,9 C 1,0 C 52 % 96 % 1025,1 hPa 0,2 l/m 0,0 km/h (0 Bft) N 0,00 h 0,0 UV-I 0 W/m 0,5 C 1,0 C 0,0 km/h (0 Bft)
01.11.2016 06:00 23,7 C 0,8 C 50 % 96 % 1024,9 hPa 0,0 l/m 0,0 km/h (0 Bft) N 0,00 h 0,0 UV-I 0 W/m 0,3 C 0,8 C 0,0 km/h (0 Bft)
01.11.2016 07:00 23,8 C 0,8 C 52 % 96 % 1024,8 hPa 0,0 l/m 0,0 km/h (0 Bft) N 0,00 h 0,0 UV-I 22 W/m 0,2 C 0,8 C 0,0 km/h (0 Bft)
01.11.2016 08:00 23,8 C 1,3 C 51 % 97 % 1024,5 hPa 0,0 l/m 0,0 km/h (0 Bft) N 0,00 h 0,0 UV-I 49 W/m 0,8 C 1,3 C 0,0 km/h (0 Bft)
01.11.2016 09:00 23,8 C 2,1 C 52 % 97 % 1024,2 hPa 0,0 l/m 0,0 km/h (0 Bft) N 0,02 h 0,6 UV-I 101 W/m 1,7 C 2,1 C 0,0 km/h (0 Bft)
01.11.2016 10:00 23,9 C 4,7 C 52 % 97 % 1023,5 hPa 0,0 l/m 0,9 km/h (0 Bft) W 0,83 h 1,1 UV-I 299 W/m 4,3 C 4,7 C 2,1 km/h (1 Bft)
01.11.2016 11:00 24,0 C 8,1 C 53 % 88 % 1023,0 hPa 0,0 l/m 2,3 km/h (1 Bft) W-SW 1,00 h 1,6 UV-I 397 W/m 6,2 C 8,1 C 6,1 km/h (2 Bft)
01.11.2016 12:00 23,9 C 9,5 C 50 % 81 % 1022,0 hPa 0,0 l/m 5,3 km/h (1 Bft) S 1,00 h 1,6 UV-I 403 W/m 6,4 C 9,0 C 10,7 km/h (2 Bft)
01.11.2016 13:00 22,8 C 9,7 C 44 % 78 % 1020,9 hPa 0,0 l/m 5,4 km/h (1 Bft) S 0,88 h 1,2 UV-I 290 W/m 6,0 C 9,3 C 10,1 km/h (2 Bft)
01.11.2016 14:00 23,6 C 10,0 C 45 % 79 % 1020,0 hPa 0,0 l/m 3,5 km/h (1 Bft) S 0,83 h 0,8 UV-I 190 W/m 6,5 C 9,9 C 8,3 km/h (2 Bft)
01.11.2016 15:00 23,8 C 9,3 C 46 % 82 % 1019,2 hPa 0,0 l/m 1,1 km/h (1 Bft) W-SW 0,17 h 0,5 UV-I 91 W/m 6,4 C 9,3 C 3,8 km/h (1 Bft)
01.11.2016 16:00 23,9 C 8,2 C 46 % 86 % 1018,8 hPa 0,0 l/m 1,8 km/h (1 Bft) SW 0,00 h 0,0 UV-I 18 W/m 5,9 C 8,2 C 4,5 km/h (1 Bft)
01.11.2016 17:00 24,0 C 7,2 C 47 % 89 % 1018,4 hPa 0,0 l/m 0,4 km/h (0 Bft) SW 0,00 h 0,0 UV-I 0 W/m 5,5 C 7,2 C 1,1 km/h (1 Bft)
01.11.2016 18:00 24,1 C 6,2 C 49 % 91 % 1018,3 hPa 0,0 l/m 1,6 km/h (1 Bft) S 0,00 h 0,0 UV-I 0 W/m 4,9 C 6,2 C 3,3 km/h (1 Bft)
01.11.2016 19:00 24,2 C 5,8 C 49 % 94 % 1018,0 hPa 0,0 l/m 1,3 km/h (1 Bft) S 0,00 h 0,0 UV-I 0 W/m 4,9 C 5,8 C 3,9 km/h (1 Bft)
01.11.2016 20:00 24,2 C 5,4 C 49 % 95 % 1017,5 hPa 0,0 l/m 3,4 km/h (1 Bft) S 0,00 h 0,0 UV-I 0 W/m 4,7 C 5,4 C 6,1 km/h (2 Bft)
01.11.2016 21:00 24,3 C 5,3 C 50 % 96 % 1017,2 hPa 0,0 l/m 3,6 km/h (1 Bft) S 0,00 h 0,0 UV-I 0 W/m 4,7 C 5,3 C 6,5 km/h (2 Bft)
01.11.2016 22:00 24,2 C 5,2 C 49 % 96 % 1016,8 hPa 0,0 l/m 1,8 km/h (1 Bft) S-SW 0,00 h 0,0 UV-I 0 W/m 4,7 C 5,2 C 4,2 km/h (1 Bft)
01.11.2016 23:00 23,8 C 5,0 C 49 % 97 % 1016,6 hPa 0,0 l/m 1,8 km/h (1 Bft) S 0,00 h 0,0 UV-I 0 W/m 4,6 C 5,0 C 3,9 km/h (1 Bft)
02.11.2016 00:00 23,7 C 5,0 C 49 % 97 % 1016,1 hPa 0,0 l/m 2,2 km/h (1 Bft) S 0,00 h 0,0 UV-I 0 W/m 4,5 C 4,9 C 4,8 km/h (1 Bft)
02.11.2016 01:00 23,6 C 4,9 C 50 % 97 % 1015,7 hPa 0,0 l/m 2,8 km/h (1 Bft) S 0,00 h 0,0 UV-I 0 W/m 4,5 C 4,9 C 5,7 km/h (1 Bft)
02.11.2016 02:00 23,5 C 4,9 C 50 % 97 % 1015,2 hPa 0,0 l/m 3,5 km/h (1 Bft) S-SW 0,00 h 0,0 UV-I 0 W/m 4,5 C 4,8 C 7,1 km/h (2 Bft)
02.11.2016 03:00 23,4 C 5,0 C 51 % 97 % 1015,1 hPa 0,4 l/m 1,8 km/h (1 Bft) W-SW 0,00 h 0,0 UV-I 0 W/m 4,5 C 5,0 C 4,5 km/h (1 Bft)
02.11.2016 04:00 23,4 C 5,2 C 51 % 98 % 1015,2 hPa 0,8 l/m 1,1 km/h (0 Bft) N 0,00 h 0,0 UV-I 0 W/m 4,9 C 5,2 C 2,6 km/h (1 Bft)
02.11.2016 05:00 23,4 C 5,0 C 51 % 97 % 1015,2 hPa 0,6 l/m 1,2 km/h (1 Bft) N 0,00 h 0,0 UV-I 0 W/m 4,6 C 4,9 C 3,0 km/h (1 Bft)
02.11.2016 06:00 23,4 C 4,6 C 52 % 97 % 1015,6 hPa 0,4 l/m 0,4 km/h (0 Bft) N 0,00 h 0,0 UV-I 0 W/m 4,2 C 4,6 C 1,1 km/h (1 Bft)
02.11.2016 07:00 23,5 C 4,4 C 52 % 97 % 1015,9 hPa 0,0 l/m 0,4 km/h (0 Bft) W 0,00 h 0,0 UV-I 23 W/m 3,9 C 4,4 C 1,0 km/h (0 Bft)
02.11.2016 08:00 23,6 C 4,6 C 52 % 97 % 1016,2 hPa 0,2 l/m 0,0 km/h (0 Bft) N 0,13 h 0,5 UV-I 75 W/m 4,2 C 4,6 C 0,0 km/h (0 Bft)
02.11.2016 09:00 23,6 C 5,3 C 52 % 94 % 1016,2 hPa 0,0 l/m 1,2 km/h (1 Bft) W-SW 0,27 h 0,6 UV-I 140 W/m 4,4 C 5,3 C 3,3 km/h (1 Bft)
02.11.2016 10:00 23,6 C 6,0 C 51 % 87 % 1016,3 hPa 0,0 l/m 3,6 km/h (1 Bft) W 0,37 h 0,8 UV-I 189 W/m 4,0 C 5,8 C 9,0 km/h (2 Bft)
02.11.2016 11:00 23,5 C 6,7 C 52 % 82 % 1015,9 hPa 0,0 l/m 8,8 km/h (2 Bft) W-NW 0,32 h 1,1 UV-I 184 W/m 3,8 C 4,3 C 15,6 km/h (3 Bft)
02.11.2016 12:00 23,5 C 7,9 C 53 % 74 % 1015,4 hPa 0,0 l/m 12,5 km/h (3 Bft) W-NW 0,73 h 1,2 UV-I 294 W/m 3,6 C 4,0 C 18,0 km/h (3 Bft)
02.11.2016 13:00 23,8 C 7,4 C 53 % 76 % 1015,2 hPa 0,0 l/m 11,6 km/h (2 Bft) W 0,42 h 0,8 UV-I 176 W/m 3,4 C 3,9 C 18,2 km/h (3 Bft)
02.11.2016 14:00 24,0 C 7,1 C 52 % 79 % 1015,0 hPa 0,0 l/m 8,3 km/h (2 Bft) W 0,65 h 0,7 UV-I 178 W/m 3,7 C 5,2 C 15,1 km/h (3 Bft)
02.11.2016 15:00 23,9 C 6,8 C 48 % 81 % 1014,9 hPa 0,0 l/m 7,7 km/h (2 Bft) W-SW 0,12 h 0,0 UV-I 79 W/m 3,8 C 5,1 C 12,6 km/h (3 Bft)
02.11.2016 16:00 23,7 C 5,1 C 46 % 90 % 1015,5 hPa 1,4 l/m 8,1 km/h (2 Bft) W-NW 0,00 h 0,0 UV-I 6 W/m 3,5 C 3,4 C 12,9 km/h (3 Bft)
02.11.2016 17:00 23,8 C 4,3 C 47 % 91 % 1016,1 hPa 0,0 l/m 8,7 km/h (2 Bft) W-NW 0,00 h 0,0 UV-I 0 W/m 3,0 C 2,3 C 13,3 km/h (3 Bft)
02.11.2016 18:00 23,8 C 4,2 C 47 % 90 % 1016,6 hPa 0,0 l/m 6,7 km/h (2 Bft) W 0,00 h 0,0 UV-I 0 W/m 2,8 C 3,4 C 11,2 km/h (2 Bft)
02.11.2016 19:00 24,1 C 3,9 C 47 % 91 % 1016,9 hPa 0,0 l/m 8,2 km/h (2 Bft) W-SW 0,00 h 0,0 UV-I 0 W/m 2,7 C 2,1 C 12,3 km/h (3 Bft)
02.11.2016 20:00 23,9 C 3,6 C 47 % 92 % 1017,0 hPa 0,0 l/m 10,5 km/h (2 Bft) W 0,00 h 0,0 UV-I 0 W/m 2,5 C 0,3 C 16,3 km/h (3 Bft)
02.11.2016 21:00 24,2 C 3,6 C 49 % 94 % 1017,2 hPa 0,0 l/m 7,8 km/h (2 Bft) W 0,00 h 0,0 UV-I 0 W/m 2,7 C 2,1 C 12,4 km/h (3 Bft)
02.11.2016 22:00 24,0 C 3,7 C 48 % 93 % 1017,4 hPa 0,0 l/m 9,0 km/h (2 Bft) W 0,00 h 0,0 UV-I 0 W/m 2,7 C 1,4 C 14,4 km/h (3 Bft)
02.11.2016 23:00 23,7 C 4,0 C 49 % 93 % 1017,6 hPa 0,0 l/m 10,6 km/h (2 Bft) W 0,00 h 0,0 UV-I 0 W/m 2,9 C 0,6 C 17,0 km/h (3 Bft)
03.11.2016 00:00 23,6 C 4,1 C 49 % 92 % 1017,6 hPa 0,0 l/m 9,1 km/h (2 Bft) W-NW 0,00 h 0,0 UV-I 0 W/m 2,9 C 1,7 C 14,5 km/h (3 Bft)
03.11.2016 01:00 23,6 C 4,0 C 49 % 91 % 1017,6 hPa 0,0 l/m 9,4 km/h (2 Bft) W-NW 0,00 h 0,0 UV-I 0 W/m 2,6 C 1,5 C 14,6 km/h (3 Bft)
03.11.2016 02:00 23,9 C 3,8 C 51 % 92 % 1018,2 hPa 0,2 l/m 10,4 km/h (2 Bft) W-NW 0,00 h 0,0 UV-I 0 W/m 2,6 C 0,6 C 16,5 km/h (3 Bft)
03.11.2016 03:00 23,9 C 3,3 C 52 % 91 % 1018,7 hPa 0,0 l/m 7,4 km/h (2 Bft) W-NW 0,00 h 0,0 UV-I 0 W/m 2,0 C 2,0 C 11,3 km/h (2 Bft)
03.11.2016 04:00 23,9 C 2,8 C 51 % 92 % 1019,3 hPa 0,0 l/m 5,0 km/h (1 Bft) NW 0,00 h 0,0 UV-I 0 W/m 1,6 C 2,7 C 6,9 km/h (2 Bft)
03.11.2016 05:00 23,6 C 2,3 C 51 % 91 % 1019,9 hPa 0,0 l/m 2,9 km/h (1 Bft) NW 0,00 h 0,0 UV-I 0 W/m 1,1 C 2,3 C 4,7 km/h (1 Bft)
03.11.2016 06:00 23,4 C 1,9 C 52 % 92 % 1020,4 hPa 0,0 l/m 1,2 km/h (1 Bft) N-NW 0,00 h 0,0 UV-I 0 W/m 0,7 C 1,9 C 2,3 km/h (1 Bft)
03.11.2016 07:00 23,4 C 1,1 C 52 % 92 % 1021,3 hPa 0,0 l/m 0,0 km/h (0 Bft) N 0,00 h 0,0 UV-I 26 W/m -0,1 C 1,1 C 0,0 km/h (0 Bft)
03.11.2016 08:00 23,5 C 1,9 C 52 % 94 % 1021,9 hPa 0,0 l/m 0,0 km/h (0 Bft) N 0,00 h 0,5 UV-I 56 W/m 1,0 C 1,9 C 0,0 km/h (0 Bft)
03.11.2016 09:00 23,6 C 4,0 C 52 % 88 % 1022,3 hPa 0,0 l/m 0,0 km/h (0 Bft) W-SW 0,88 h 0,7 UV-I 268 W/m 2,2 C 4,0 C 0,2 km/h (0 Bft)
03.11.2016 10:00 23,7 C 5,0 C 51 % 77 % 1022,8 hPa 0,2 l/m 0,3 km/h (0 Bft) W 0,68 h 1,1 UV-I 268 W/m 1,3 C 5,0 C 1,1 km/h (1 Bft)
03.11.2016 11:00 23,7 C 6,0 C 51 % 70 % 1022,8 hPa 0,0 l/m 0,6 km/h (0 Bft) S 0,92 h 1,3 UV-I 304 W/m 1,0 C 6,0 C 2,0 km/h (1 Bft)
03.11.2016 12:00 23,7 C 7,0 C 51 % 66 % 1022,4 hPa 0,0 l/m 0,9 km/h (0 Bft) W 1,00 h 1,3 UV-I 341 W/m 1,0 C 7,0 C 2,7 km/h (1 Bft)
03.11.2016 13:00 23,8 C 6,9 C 51 % 67 % 1022,0 hPa 0,0 l/m 2,7 km/h (1 Bft) W-SW 0,82 h 0,9 UV-I 195 W/m 1,3 C 6,8 C 6,0 km/h (2 Bft)
03.11.2016 14:00 23,7 C 6,2 C 49 % 74 % 1021,9 hPa 0,0 l/m 4,1 km/h (1 Bft) W-SW 0,00 h 0,5 UV-I 87 W/m 1,8 C 6,0 C 8,8 km/h (2 Bft)
03.11.2016 15:00 23,9 C 5,9 C 49 % 78 % 1021,9 hPa 0,0 l/m 2,1 km/h (1 Bft) W 0,00 h 0,0 UV-I 73 W/m 2,3 C 5,8 C 5,0 km/h (1 Bft)
03.11.2016 16:00 24,0 C 5,4 C 48 % 80 % 1022,2 hPa 0,0 l/m 1,3 km/h (1 Bft) W-SW 0,00 h 0,0 UV-I 17 W/m 2,1 C 5,4 C 3,0 km/h (1 Bft)
03.11.2016 17:00 24,1 C 5,0 C 49 % 83 % 1022,3 hPa 0,0 l/m 0,1 km/h (0 Bft) W 0,00 h 0,0 UV-I 0 W/m 2,3 C 5,0 C 0,6 km/h (0 Bft)
03.11.2016 18:00 24,4 C 4,5 C 50 % 86 % 1022,4 hPa 0,0 l/m 1,8 km/h (1 Bft) S 0,00 h 0,0 UV-I 0 W/m 2,5 C 4,5 C 3,5 km/h (1 Bft)
03.11.2016 19:00 24,2 C 3,7 C 50 % 87 % 1022,5 hPa 0,0 l/m 1,7 km/h (1 Bft) S 0,00 h 0,0 UV-I 0 W/m 1,9 C 3,7 C 3,0 km/h (1 Bft)
03.11.2016 20:00 24,4 C 2,8 C 50 % 88 % 1022,6 hPa 0,0 l/m 0,3 km/h (0 Bft) S 0,00 h 0,0 UV-I 0 W/m 1,0 C 2,8 C 0,7 km/h (0 Bft)
03.11.2016 21:00 24,4 C 2,0 C 50 % 90 % 1022,6 hPa 0,0 l/m 0,3 km/h (0 Bft) SO 0,00 h 0,0 UV-I 0 W/m 0,5 C 2,0 C 0,5 km/h (0 Bft)
03.11.2016 22:00 24,2 C 1,2 C 49 % 91 % 1022,2 hPa 0,0 l/m 0,0 km/h (0 Bft) SO 0,00 h 0,0 UV-I 0 W/m -0,2 C 1,2 C 0,3 km/h (0 Bft)
03.11.2016 23:00 23,8 C 0,6 C 48 % 92 % 1022,0 hPa 0,0 l/m 0,1 km/h (0 Bft) SO 0,00 h 0,0 UV-I 0 W/m -0,5 C 0,6 C 0,2 km/h (0 Bft)
04.11.2016 00:00 23,7 C 0,2 C 49 % 93 % 1021,9 hPa 0,0 l/m 0,3 km/h (0 Bft) SW 0,00 h 0,0 UV-I 0 W/m -0,8 C 0,2 C 0,6 km/h (0 Bft)
04.11.2016 01:00 23,6 C -0,3 C 49 % 93 % 1021,5 hPa 0,0 l/m 0,1 km/h (0 Bft) O-SO 0,00 h 0,0 UV-I 0 W/m -1,3 C -0,3 C 0,4 km/h (0 Bft)
04.11.2016 02:00 23,6 C -0,6 C 50 % 93 % 1021,4 hPa 0,0 l/m 0,0 km/h (0 Bft) N 0,00 h 0,0 UV-I 0 W/m -1,6 C -0,6 C 0,0 km/h (0 Bft)
04.11.2016 03:00 23,5 C -0,7 C 50 % 94 % 1020,7 hPa 0,0 l/m 0,0 km/h (0 Bft) N 0,00 h 0,0 UV-I 0 W/m -1,6 C -0,7 C 0,0 km/h (0 Bft)
04.11.2016 04:00 23,4 C -1,1 C 50 % 94 % 1020,3 hPa 0,0 l/m 0,4 km/h (0 Bft) O-SO 0,00 h 0,0 UV-I 0 W/m -2,0 C -1,1 C 0,6 km/h (0 Bft)
04.11.2016 05:00 23,3 C -1,3 C 50 % 94 % 1020,0 hPa 0,0 l/m 0,4 km/h (0 Bft) N 0,00 h 0,0 UV-I 0 W/m -2,1 C -1,3 C 0,7 km/h (0 Bft)
04.11.2016 06:00 23,3 C -1,8 C 51 % 94 % 1019,7 hPa 0,0 l/m 0,0 km/h (0 Bft) N 0,00 h 0,0 UV-I 0 W/m -2,6 C -1,8 C 0,0 km/h (0 Bft)
04.11.2016 07:00 23,2 C -1,6 C 51 % 95 % 1019,9 hPa 0,0 l/m 0,6 km/h (0 Bft) N-NW 0,00 h 0,0 UV-I 23 W/m -2,4 C -1,6 C 1,3 km/h (1 Bft)
04.11.2016 08:00 23,2 C -0,5 C 51 % 96 % 1019,7 hPa 0,0 l/m 0,0 km/h (0 Bft) N 0,00 h 0,0 UV-I 68 W/m -1,1 C -0,5 C 0,0 km/h (0 Bft)
04.11.2016 09:00 23,3 C 0,7 C 51 % 96 % 1019,0 hPa 0,0 l/m 0,1 km/h (0 Bft) W-NW 0,18 h 0,7 UV-I 126 W/m 0,2 C 0,7 C 0,4 km/h (0 Bft)
04.11.2016 10:00 23,3 C 3,4 C 49 % 93 % 1018,9 hPa 0,0 l/m 0,0 km/h (0 Bft) N 1,00 h 1,0 UV-I 222 W/m 2,4 C 3,4 C 0,0 km/h (0 Bft)
04.11.2016 11:00 23,7 C 5,1 C 49 % 85 % 1018,4 hPa 0,0 l/m 1,0 km/h (0 Bft) S 0,95 h 1,2 UV-I 222 W/m 2,8 C 5,0 C 2,4 km/h (1 Bft)
04.11.2016 12:00 23,9 C 6,7 C 48 % 74 % 1017,2 hPa 0,0 l/m 2,8 km/h (1 Bft) S 1,00 h 1,3 UV-I 319 W/m 2,5 C 6,7 C 6,8 km/h (2 Bft)
04.11.2016 13:00 23,8 C 7,3 C 47 % 71 % 1016,6 hPa 0,0 l/m 1,7 km/h (1 Bft) S 0,78 h 0,9 UV-I 229 W/m 2,3 C 7,3 C 4,7 km/h (1 Bft)
04.11.2016 14:00 23,8 C 6,8 C 47 % 76 % 1015,8 hPa 0,0 l/m 1,4 km/h (1 Bft) S 0,00 h 0,5 UV-I 87 W/m 2,8 C 6,8 C 2,8 km/h (1 Bft)
04.11.2016 15:00 23,8 C 6,4 C 47 % 76 % 1015,1 hPa 0,0 l/m 3,3 km/h (1 Bft) S 0,00 h 0,0 UV-I 39 W/m 2,6 C 6,3 C 6,1 km/h (2 Bft)
04.11.2016 16:00 23,9 C 6,2 C 47 % 77 % 1014,6 hPa 0,0 l/m 0,6 km/h (0 Bft) S 0,00 h 0,0 UV-I 12 W/m 2,5 C 6,2 C 1,5 km/h (1 Bft)
04.11.2016 17:00 24,1 C 5,6 C 47 % 79 % 1014,4 hPa 0,0 l/m 2,2 km/h (1 Bft) S 0,00 h 0,0 UV-I 0 W/m 2,3 C 5,6 C 4,4 km/h (1 Bft)
04.11.2016 18:00 24,0 C 5,1 C 47 % 82 % 1014,2 hPa 0,0 l/m 0,0 km/h (0 Bft) S-SW 0,00 h 0,0 UV-I 0 W/m 2,3 C 5,1 C 0,2 km/h (0 Bft)
04.11.2016 19:00 24,0 C 4,4 C 48 % 84 % 1013,7 hPa 0,0 l/m 0,3 km/h (0 Bft) S 0,00 h 0,0 UV-I 0 W/m 2,0 C 4,4 C 0,6 km/h (0 Bft)
04.11.2016 20:00 24,1 C 3,9 C 48 % 86 % 1013,5 hPa 0,0 l/m 0,0 km/h (0 Bft) N 0,00 h 0,0 UV-I 0 W/m 1,8 C 3,9 C 0,0 km/h (0 Bft)
04.11.2016 21:00 24,2 C 3,3 C 48 % 87 % 1013,3 hPa 0,0 l/m 0,0 km/h (0 Bft) N 0,00 h 0,0 UV-I 0 W/m 1,4 C 3,3 C 0,0 km/h (0 Bft)
04.11.2016 22:00 24,3 C 2,9 C 48 % 90 % 1012,8 hPa 0,0 l/m 0,1 km/h (0 Bft) O 0,00 h 0,0 UV-I 0 W/m 1,4 C 2,9 C 0,6 km/h (0 Bft)
04.11.2016 23:00 24,0 C 2,9 C 48 % 91 % 1011,9 hPa 0,0 l/m 0,0 km/h (0 Bft) N 0,00 h 0,0 UV-I 0 W/m 1,6 C 2,9 C 0,1 km/h (0 Bft)
05.11.2016 00:00 23,9 C 2,7 C 49 % 92 % 1011,4 hPa 0,0 l/m 0,1 km/h (0 Bft) N-NO 0,00 h 0,0 UV-I 0 W/m 1,5 C 2,7 C 0,3 km/h (0 Bft)
05.11.2016 01:00 24,2 C 2,2 C 50 % 92 % 1010,8 hPa 0,0 l/m 0,0 km/h (0 Bft) N 0,00 h 0,0 UV-I 0 W/m 1,0 C 2,2 C 0,0 km/h (0 Bft)
05.11.2016 02:00 24,2 C 1,6 C 51 % 92 % 1010,1 hPa 0,0 l/m 0,0 km/h (0 Bft) N 0,00 h 0,0 UV-I 0 W/m 0,5 C 1,6 C 0,0 km/h (0 Bft)
05.11.2016 03:00 24,2 C 1,1 C 51 % 93 % 1009,2 hPa 0,0 l/m 0,0 km/h (0 Bft) N 0,00 h 0,0 UV-I 0 W/m 0,0 C 1,1 C 0,0 km/h (0 Bft)
05.11.2016 04:00 24,1 C 0,5 C 51 % 93 % 1008,8 hPa 0,0 l/m 0,0 km/h (0 Bft) N 0,00 h 0,0 UV-I 0 W/m -0,5 C 0,5 C 0,1 km/h (0 Bft)
05.11.2016 05:00 24,1 C 1,0 C 51 % 95 % 1008,3 hPa 0,2 l/m 0,2 km/h (0 Bft) S-SO 0,00 h 0,0 UV-I 0 W/m 0,2 C 1,0 C 0,7 km/h (0 Bft)
05.11.2016 06:00 24,1 C 1,5 C 51 % 95 % 1007,7 hPa 0,4 l/m 0,0 km/h (0 Bft) N 0,00 h 0,0 UV-I 0 W/m 0,8 C 1,5 C 0,0 km/h (0 Bft)
05.11.2016 07:00 24,0 C 2,2 C 51 % 96 % 1007,6 hPa 0,2 l/m 0,0 km/h (0 Bft) N 0,00 h 0,0 UV-I 7 W/m 1,6 C 2,2 C 0,0 km/h (0 Bft)
05.11.2016 08:00 23,7 C 2,9 C 50 % 96 % 1006,7 hPa 0,2 l/m 0,0 km/h (0 Bft) N 0,00 h 0,0 UV-I 18 W/m 2,3 C 2,9 C 0,0 km/h (0 Bft)
05.11.2016 09:00 23,7 C 3,8 C 50 % 97 % 1005,6 hPa 0,0 l/m 0,0 km/h (0 Bft) N 0,00 h 0,0 UV-I 19 W/m 3,3 C 3,8 C 0,0 km/h (0 Bft)
05.11.2016 10:00 23,6 C 4,4 C 50 % 97 % 1004,8 hPa 0,0 l/m 0,0 km/h (0 Bft) N 0,02 h 0,7 UV-I 49 W/m 4,0 C 4,4 C 0,0 km/h (0 Bft)
05.11.2016 11:00 23,6 C 6,7 C 50 % 97 % 1003,6 hPa 0,0 l/m 0,0 km/h (0 Bft) N 0,63 h 1,0 UV-I 193 W/m 6,2 C 6,7 C 0,0 km/h (0 Bft)
05.11.2016 12:00 23,8 C 8,7 C 51 % 94 % 1002,0 hPa 0,0 l/m 0,2 km/h (0 Bft) S-SO 0,68 h 0,8 UV-I 178 W/m 7,7 C 8,7 C 0,5 km/h (0 Bft)
05.11.2016 13:00 23,7 C 10,6 C 50 % 87 % 1000,6 hPa 0,2 l/m 3,4 km/h (1 Bft) S-SO 0,07 h 0,6 UV-I 112 W/m 8,4 C 10,4 C 7,6 km/h (2 Bft)
05.11.2016 14:00 23,7 C 10,2 C 50 % 87 % 999,6 hPa 0,0 l/m 1,0 km/h (0 Bft) S-SO 0,00 h 0,5 UV-I 46 W/m 8,2 C 10,2 C 2,8 km/h (1 Bft)
05.11.2016 15:00 23,8 C 9,8 C 50 % 90 % 999,3 hPa 0,8 l/m 0,7 km/h (0 Bft) W-NW 0,00 h 0,0 UV-I 17 W/m 8,3 C 9,8 C 1,2 km/h (1 Bft)
05.11.2016 16:00 24,0 C 9,0 C 51 % 92 % 998,9 hPa 0,2 l/m 0,0 km/h (0 Bft) N 0,00 h 0,0 UV-I 5 W/m 7,8 C 9,0 C 0,0 km/h (0 Bft)
05.11.2016 17:00 24,1 C 8,5 C 52 % 94 % 998,5 hPa 0,0 l/m 0,0 km/h (0 Bft) N 0,00 h 0,0 UV-I 0 W/m 7,5 C 8,5 C 0,1 km/h (0 Bft)
05.11.2016 18:00 24,2 C 8,0 C 52 % 93 % 998,7 hPa 0,0 l/m 0,3 km/h (0 Bft) W-SW 0,00 h 0,0 UV-I 0 W/m 7,0 C 8,0 C 1,1 km/h (1 Bft)
05.11.2016 19:00 24,2 C 7,5 C 50 % 93 % 999,0 hPa 0,0 l/m 0,2 km/h (0 Bft) W-SW 0,00 h 0,0 UV-I 0 W/m 6,5 C 7,5 C 0,8 km/h (0 Bft)
05.11.2016 20:00 24,3 C 7,3 C 51 % 95 % 999,3 hPa 0,2 l/m 0,3 km/h (0 Bft) W-SW 0,00 h 0,0 UV-I 0 W/m 6,5 C 7,3 C 1,1 km/h (1 Bft)
05.11.2016 21:00 24,4 C 6,8 C 51 % 95 % 999,8 hPa 0,0 l/m 1,4 km/h (1 Bft) W 0,00 h 0,0 UV-I 0 W/m 6,0 C 6,7 C 4,2 km/h (1 Bft)
05.11.2016 22:00 24,3 C 6,3 C 51 % 95 % 1000,2 hPa 0,0 l/m 0,2 km/h (0 Bft) W-NW 0,00 h 0,0 UV-I 0 W/m 5,5 C 6,3 C 1,4 km/h (1 Bft)
05.11.2016 23:00 24,1 C 5,7 C 50 % 94 % 1000,1 hPa 0,0 l/m 0,0 km/h (0 Bft) N 0,00 h 0,0 UV-I 0 W/m 4,8 C 5,7 C 0,1 km/h (0 Bft)
06.11.2016 00:00 24,1 C 5,2 C 50 % 94 % 1000,4 hPa 0,0 l/m 0,0 km/h (0 Bft) N 0,00 h 0,0 UV-I 0 W/m 4,4 C 5,2 C 0,2 km/h (0 Bft)
06.11.2016 01:00 24,3 C 5,3 C 50 % 95 % 1000,4 hPa 0,0 l/m 0,1 km/h (0 Bft) SW 0,00 h 0,0 UV-I 0 W/m 4,5 C 5,3 C 0,7 km/h (0 Bft)
06.11.2016 02:00 24,4 C 5,1 C 52 % 95 % 1000,4 hPa 0,0 l/m 0,0 km/h (0 Bft) N 0,00 h 0,0 UV-I 0 W/m 4,4 C 5,1 C 0,1 km/h (0 Bft)
06.11.2016 03:00 24,5 C 4,9 C 53 % 95 % 1000,6 hPa 0,0 l/m 0,3 km/h (0 Bft) W-SW 0,00 h 0,0 UV-I 0 W/m 4,2 C 4,9 C 0,9 km/h (0 Bft)
06.11.2016 04:00 24,6 C 4,6 C 53 % 95 % 1000,5 hPa 0,0 l/m 0,6 km/h (0 Bft) W-SW 0,00 h 0,0 UV-I 0 W/m 3,8 C 4,6 C 1,9 km/h (1 Bft)
06.11.2016 05:00 24,6 C 4,2 C 53 % 93 % 1000,3 hPa 0,0 l/m 0,2 km/h (0 Bft) W-SW 0,00 h 0,0 UV-I 0 W/m 3,2 C 4,2 C 0,7 km/h (0 Bft)
06.11.2016 06:00 24,6 C 3,8 C 52 % 94 % 1000,4 hPa 0,0 l/m 0,1 km/h (0 Bft) S-SW 0,00 h 0,0 UV-I 0 W/m 2,9 C 3,8 C 0,2 km/h (0 Bft)
06.11.2016 07:00 24,3 C 3,6 C 53 % 95 % 1000,6 hPa 0,0 l/m 0,0 km/h (0 Bft) N 0,00 h 0,0 UV-I 10 W/m 2,8 C 3,6 C 0,0 km/h (0 Bft)
06.11.2016 08:00 24,1 C 3,9 C 53 % 95 % 1000,7 hPa 0,0 l/m 0,5 km/h (0 Bft) S-SW 0,00 h 0,0 UV-I 38 W/m 3,2 C 3,9 C 1,9 km/h (1 Bft)
06.11.2016 09:00 24,1 C 4,2 C 51 % 95 % 1001,2 hPa 0,0 l/m 0,6 km/h (0 Bft) SW 0,00 h 0,0 UV-I 50 W/m 3,5 C 4,2 C 2,3 km/h (1 Bft)
06.11.2016 10:00 24,2 C 4,4 C 51 % 93 % 1001,1 hPa 0,0 l/m 0,5 km/h (0 Bft) SW 0,00 h 0,4 UV-I 55 W/m 3,5 C 4,4 C 2,1 km/h (1 Bft)
06.11.2016 11:00 24,3 C 4,5 C 53 % 92 % 1000,6 hPa 0,0 l/m 0,3 km/h (0 Bft) S 0,00 h 0,0 UV-I 29 W/m 3,4 C 4,5 C 1,0 km/h (0 Bft)
06.11.2016 12:00 24,1 C 4,6 C 51 % 93 % 1000,4 hPa 0,0 l/m 1,0 km/h (0 Bft) W-SW 0,00 h 0,5 UV-I 43 W/m 3,5 C 4,6 C 2,5 km/h (1 Bft)
06.11.2016 13:00 24,3 C 4,6 C 51 % 92 % 1000,1 hPa 0,0 l/m 1,6 km/h (1 Bft) W-SW 0,00 h 0,0 UV-I 51 W/m 3,5 C 4,6 C 4,7 km/h (1 Bft)
06.11.2016 14:00 24,3 C 4,5 C 51 % 92 % 1000,5 hPa 0,2 l/m 2,4 km/h (1 Bft) W-SW 0,00 h 0,0 UV-I 18 W/m 3,3 C 4,3 C 5,5 km/h (1 Bft)
06.11.2016 15:00 24,1 C 4,0 C 51 % 93 % 1000,7 hPa 0,0 l/m 1,4 km/h (1 Bft) W-SW 0,00 h 0,0 UV-I 39 W/m 2,9 C 4,0 C 3,7 km/h (1 Bft)
06.11.2016 16:00 24,0 C 4,0 C 51 % 93 % 1001,1 hPa 0,0 l/m 0,6 km/h (0 Bft) W 0,00 h 0,0 UV-I 12 W/m 2,9 C 4,0 C 1,6 km/h (1 Bft)
06.11.2016 17:00 24,2 C 3,4 C 52 % 93 % 1001,8 hPa 0,0 l/m 0,1 km/h (0 Bft) W-SW 0,00 h 0,0 UV-I 0 W/m 2,4 C 3,4 C 0,4 km/h (0 Bft)
06.11.2016 18:00 24,3 C 2,8 C 52 % 93 % 1001,9 hPa 0,0 l/m 0,0 km/h (0 Bft) N 0,00 h 0,0 UV-I 0 W/m 1,8 C 2,8 C 0,0 km/h (0 Bft)
06.11.2016 19:00 24,4 C 2,1 C 53 % 93 % 1002,2 hPa 0,0 l/m 0,0 km/h (0 Bft) N 0,00 h 0,0 UV-I 0 W/m 1,2 C 2,1 C 0,0 km/h (0 Bft)
06.11.2016 20:00 24,3 C 1,6 C 52 % 94 % 1002,5 hPa 0,0 l/m 0,1 km/h (0 Bft) SW 0,00 h 0,0 UV-I 0 W/m 0,7 C 1,6 C 0,2 km/h (0 Bft)
06.11.2016 21:00 24,5 C 1,4 C 52 % 95 % 1002,8 hPa 0,0 l/m 0,1 km/h (0 Bft) SW 0,00 h 0,0 UV-I 0 W/m 0,7 C 1,4 C 0,5 km/h (0 Bft)
06.11.2016 22:00 24,5 C 1,5 C 51 % 95 % 1002,6 hPa 0,0 l/m 2,0 km/h (1 Bft) SW 0,00 h 0,0 UV-I 0 W/m 0,9 C 1,5 C 4,3 km/h (1 Bft)
06.11.2016 23:00 24,1 C 1,3 C 50 % 96 % 1003,1 hPa 0,0 l/m 2,7 km/h (1 Bft) S-SW 0,00 h 0,0 UV-I 0 W/m 0,7 C 1,3 C 4,9 km/h (1 Bft)
Min-Datum _ 01.11.16 04.11.16 31.10.16 03.11.16 05.11.16 - 31.10.16 - - - - 04.11.16 03.11.16 31.10.16
_ Min-Zeit 13:17 06:56 15:40 12:29 17:29 - 00:00 - - - - 06:56 02:40 00:00
Minimum _ 22,4 C -2,1 C 40 % 61 % 998,3 hPa - 0,0 km/h (0 Bft) - - - - -2,9 C -6,7 C 0,0 km/h (0 Bft)
Max-Datum _ 06.11.16 31.10.16 01.11.16 31.10.16 31.10.16 02.11.16 03.11.16 - 31.10.16 31.10.16 03.11.16 05.11.16 31.10.16 02.11.16
_ Max-Zeit 04:04 14:52 11:40 09:12 00:04 16:02 02:40 - 12:03 12:00 12:20 13:06 14:52 16:01
Maximum _ 24,7 C 10,9 C 55 % 98 % 1031,1 hPa 1,4 l/m 25,7 km/h
W-NW (4 Bft)
- 0,03 h 1,8 UV-I 605 W/m 9,0 C 10,9 C 33,8 km/h
W-NW (5 Bft)
Durchschnitt _ 23,9 C 4,3 C 50 % 90 % 1015,8 hPa #7,0 l/m 1,6 km/h (1 Bft) W #21:17 h 0,9 UV-I 124 W/m 2,8 C 4,1 C 3,1 km/h (1 Bft)